Time,TemperatureF,DewpointF,PressureIn,WindDirection,WindDirectionDegrees,WindSpeedMPH,WindSpeedGustMPH,Humidity,HourlyPrecipIn,Conditions,Clouds,dailyrainin,SoftwareType,DateUTC
2013-06-16 00:12:00,62.7,60.0,29.95,NNW,338,1.0,6.0,89,0.00,,,0.00,weatherlink.com 1.10,2013-06-16 04:12:00,
2013-06-16 00:27:00,62.6,60.0,29.95,SSW,200,3.0,6.0,90,0.00,,,0.00,weatherlink.com 1.10,2013-06-16 04:27:00,
2013-06-16 00:42:00,62.7,60.0,29.95,NW,325,2.0,5.0,89,0.00,,,0.00,weatherlink.com 1.10,2013-06-16 04:42:00,
2013-06-16 00:57:00,62.6,60.0,29.94,West,280,4.0,6.0,90,0.00,,,0.00,weatherlink.com 1.10,2013-06-16 04:57:00,
2013-06-16 01:12:00,62.9,60.0,29.94,WNW,286,1.0,9.0,89,0.00,,,0.00,weatherlink.com 1.10,2013-06-16 05:12:00,
2013-06-16 01:27:00,63.0,60.0,29.94,SW,214,4.0,5.0,90,0.00,,,0.00,weatherlink.com 1.10,2013-06-16 05:27:00,
2013-06-16 01:42:00,63.0,60.0,29.94,SSW,212,4.0,8.0,91,0.00,,,0.00,weatherlink.com 1.10,2013-06-16 05:42:00,
2013-06-16 01:57:00,63.0,60.0,29.93,West,265,2.0,7.0,91,0.00,,,0.00,weatherlink.com 1.10,2013-06-16 05:57:00,
2013-06-16 02:12:00,62.8,60.0,29.93,WSW,239,1.0,9.0,91,0.00,,,0.00,weatherlink.com 1.10,2013-06-16 06:12:00,
2013-06-16 02:27:00,62.8,61.0,29.94,WNW,302,3.0,6.0,92,0.00,,,0.00,weatherlink.com 1.10,2013-06-16 06:27:00,
2013-06-16 02:42:00,62.5,60.0,29.94,South,179,3.0,8.0,92,0.00,,,0.00,weatherlink.com 1.10,2013-06-16 06:42:00,
2013-06-16 02:57:00,62.2,60.0,29.94,NW,304,3.0,8.0,93,0.00,,,0.00,weatherlink.com 1.10,2013-06-16 06:57:00,
2013-06-16 03:12:00,62.0,60.0,29.94,WSW,252,1.0,6.0,94,0.00,,,0.00,weatherlink.com 1.10,2013-06-16 07:12:00,
2013-06-16 03:27:00,61.5,60.0,29.94,West,264,1.0,3.0,94,0.00,,,0.00,weatherlink.com 1.10,2013-06-16 07:27:00,
2013-06-16 03:42:00,61.3,60.0,29.94,West,280,1.0,2.0,95,0.00,,,0.00,weatherlink.com 1.10,2013-06-16 07:42:00,
2013-06-16 03:57:00,61.5,60.0,29.94,SSW,203,3.0,6.0,96,0.00,,,0.00,weatherlink.com 1.10,2013-06-16 07:57:00,
2013-06-16 04:12:00,61.9,61.0,29.94,West,278,1.0,6.0,96,0.00,,,0.00,weatherlink.com 1.10,2013-06-16 08:12:00,
2013-06-16 04:28:00,61.9,61.0,29.94,WNW,284,2.0,7.0,95,0.00,,,0.00,weatherlink.com 1.10,2013-06-16 08:28:00,
2013-06-16 04:43:00,61.9,61.0,29.94,South,191,2.0,5.0,95,0.00,,,0.00,weatherlink.com 1.10,2013-06-16 08:43:00,
2013-06-16 04:58:00,61.8,61.0,29.94,West,271,1.0,8.0,96,0.00,,,0.00,weatherlink.com 1.10,2013-06-16 08:58:00,
2013-06-16 05:13:00,61.8,61.0,29.94,WSW,239,2.0,5.0,96,0.00,,,0.00,weatherlink.com 1.10,2013-06-16 09:13:00,
2013-06-16 05:28:00,61.7,60.0,29.94,SW,236,4.0,8.0,95,0.00,,,0.00,weatherlink.com 1.10,2013-06-16 09:28:00,
2013-06-16 05:43:00,62.0,61.0,29.94,WSW,253,2.0,7.0,95,0.00,,,0.00,weatherlink.com 1.10,2013-06-16 09:43:00,
2013-06-16 05:58:00,62.3,61.0,29.94,SSW,212,4.0,6.0,95,0.00,,,0.00,weatherlink.com 1.10,2013-06-16 09:58:00,
2013-06-16 06:13:00,62.8,61.0,29.94,WSW,258,2.0,8.0,95,0.00,,,0.00,weatherlink.com 1.10,2013-06-16 10:13:00,
2013-06-16 06:28:00,63.2,62.0,29.94,WNW,288,3.0,8.0,94,0.00,,,0.00,weatherlink.com 1.10,2013-06-16 10:28:00,
2013-06-16 06:43:00,63.6,62.0,29.95,SW,222,4.0,8.0,93,0.00,,,0.00,weatherlink.com 1.10,2013-06-16 10:43:00,
2013-06-16 06:58:00,64.3,62.0,29.95,WNW,298,2.0,7.0,93,0.00,,,0.00,weatherlink.com 1.10,2013-06-16 10:58:00,
2013-06-16 07:13:00,65.1,63.0,29.94,SSW,212,4.0,6.0,92,0.00,,,0.00,weatherlink.com 1.10,2013-06-16 11:13:00,
2013-06-16 07:28:00,64.3,62.0,29.94,WSW,245,8.0,9.0,92,0.00,,,0.00,weatherlink.com 1.10,2013-06-16 11:28:00,
2013-06-16 07:43:00,64.8,63.0,29.95,NW,323,1.0,8.0,92,0.00,,,0.00,weatherlink.com 1.10,2013-06-16 11:43:00,
2013-06-16 07:58:00,64.8,63.0,29.95,WSW,240,2.0,9.0,92,0.00,,,0.00,weatherlink.com 1.10,2013-06-16 11:58:00,
2013-06-16 08:13:00,65.6,63.0,29.95,SW,228,5.0,7.0,91,0.00,,,0.00,weatherlink.com 1.10,2013-06-16 12:13:00,
2013-06-16 08:28:00,65.8,63.0,29.95,SW,214,10.0,10.0,89,0.00,,,0.00,weatherlink.com 1.10,2013-06-16 12:28:00,
2013-06-16 08:44:00,65.9,63.0,29.95,SW,222,5.0,9.0,90,0.00,,,0.00,weatherlink.com 1.10,2013-06-16 12:44:00,
2013-06-16 08:58:00,65.9,63.0,29.94,SSW,212,7.0,10.0,89,0.00,,,0.00,weatherlink.com 1.10,2013-06-16 12:58:00,
2013-06-16 09:13:00,66.4,63.0,29.94,WNW,284,4.0,9.0,88,0.00,,,0.00,weatherlink.com 1.10,2013-06-16 13:13:00,
2013-06-16 09:28:00,66.9,63.0,29.94,SSW,211,3.0,9.0,87,0.00,,,0.00,weatherlink.com 1.10,2013-06-16 13:28:00,
2013-06-16 09:43:00,68.4,63.0,29.94,West,266,4.0,10.0,84,0.00,,,0.00,weatherlink.com 1.10,2013-06-16 13:43:00,
2013-06-16 09:58:00,68.3,63.0,29.95,SW,215,11.0,11.0,83,0.00,,,0.00,weatherlink.com 1.10,2013-06-16 13:58:00,
2013-06-16 10:13:00,67.5,63.0,29.95,SW,224,4.0,11.0,85,0.00,,,0.00,weatherlink.com 1.10,2013-06-16 14:13:00,
2013-06-16 10:28:00,67.0,62.0,29.94,SW,229,7.0,13.0,85,0.00,,,0.00,weatherlink.com 1.10,2013-06-16 14:28:00,
2013-06-16 10:43:00,66.8,63.0,29.94,SSW,209,5.0,12.0,86,0.00,,,0.00,weatherlink.com 1.10,2013-06-16 14:43:00,
2013-06-16 10:58:00,67.4,62.0,29.94,SW,224,7.0,10.0,84,0.00,,,0.00,weatherlink.com 1.10,2013-06-16 14:58:00,
2013-06-16 11:13:00,67.0,62.0,29.93,WNW,291,2.0,12.0,85,0.00,,,0.00,weatherlink.com 1.10,2013-06-16 15:13:00,
2013-06-16 11:28:00,67.4,62.0,29.93,WNW,287,1.0,11.0,83,0.00,,,0.00,weatherlink.com 1.10,2013-06-16 15:28:00,
2013-06-16 11:43:00,66.7,62.0,29.93,WSW,240,10.0,13.0,84,0.00,,,0.00,weatherlink.com 1.10,2013-06-16 15:43:00,
2013-06-16 11:58:00,66.4,62.0,29.92,SW,220,12.0,13.0,84,0.00,,,0.00,weatherlink.com 1.10,2013-06-16 15:58:00,
2013-06-16 12:13:00,65.9,61.0,29.92,West,263,8.0,14.0,83,0.00,,,0.00,weatherlink.com 1.10,2013-06-16 16:13:00,
2013-06-16 12:28:00,66.1,62.0,29.91,SW,224,8.0,11.0,85,0.00,,,0.00,weatherlink.com 1.10,2013-06-16 16:28:00,
2013-06-16 12:43:00,67.7,61.0,29.91,SW,232,6.0,12.0,79,0.00,,,0.00,weatherlink.com 1.10,2013-06-16 16:43:00,
2013-06-16 12:58:00,67.1,62.0,29.90,SW,224,9.0,14.0,83,0.00,,,0.00,weatherlink.com 1.10,2013-06-16 16:58:00,
2013-06-16 13:13:00,66.8,62.0,29.90,SW,229,6.0,13.0,84,0.00,,,0.00,weatherlink.com 1.10,2013-06-16 17:13:00,
2013-06-16 13:28:00,66.5,62.0,29.89,WNW,296,1.0,12.0,84,0.00,,,0.00,weatherlink.com 1.10,2013-06-16 17:28:00,
2013-06-16 13:43:00,65.7,61.0,29.89,WSW,238,3.0,13.0,85,0.00,,,0.00,weatherlink.com 1.10,2013-06-16 17:43:00,
2013-06-16 13:58:00,66.1,62.0,29.88,WSW,238,6.0,11.0,85,0.00,,,0.00,weatherlink.com 1.10,2013-06-16 17:58:00,
2013-06-16 14:13:00,66.2,62.0,29.88,SSW,204,6.0,9.0,85,0.00,,,0.00,weatherlink.com 1.10,2013-06-16 18:13:00,
2013-06-16 14:28:00,66.3,62.0,29.88,SW,215,4.0,11.0,86,0.00,,,0.00,weatherlink.com 1.10,2013-06-16 18:28:00,
2013-06-16 14:43:00,66.6,62.0,29.88,SW,224,3.0,11.0,85,0.00,,,0.00,weatherlink.com 1.10,2013-06-16 18:43:00,
2013-06-16 14:59:00,65.4,62.0,29.87,WSW,245,8.0,13.0,87,0.00,,,0.00,weatherlink.com 1.10,2013-06-16 18:59:00,
2013-06-16 15:14:00,64.9,61.0,29.86,SW,221,11.0,19.0,88,0.00,,,0.00,weatherlink.com 1.10,2013-06-16 19:14:00,
2013-06-16 15:29:00,64.3,61.0,29.85,SW,229,16.0,19.0,89,0.00,,,0.00,weatherlink.com 1.10,2013-06-16 19:29:00,
2013-06-16 15:44:00,64.2,61.0,29.85,WNW,297,7.0,15.0,89,0.00,,,0.00,weatherlink.com 1.10,2013-06-16 19:44:00,
2013-06-16 15:59:00,64.3,61.0,29.84,WSW,255,7.0,11.0,89,0.00,,,0.00,weatherlink.com 1.10,2013-06-16 19:59:00,
2013-06-16 16:15:00,64.5,61.0,29.84,SSW,208,7.0,11.0,88,0.00,,,0.00,weatherlink.com 1.10,2013-06-16 20:15:00,
2013-06-16 16:29:00,64.0,61.0,29.84,WSW,238,3.0,8.0,90,0.00,,,0.00,weatherlink.com 1.10,2013-06-16 20:29:00,
2013-06-16 16:44:00,64.4,61.0,29.83,WSW,250,7.0,12.0,88,0.00,,,0.00,weatherlink.com 1.10,2013-06-16 20:44:00,
2013-06-16 16:59:00,64.4,61.0,29.83,SW,221,16.0,16.0,89,0.00,,,0.00,weatherlink.com 1.10,2013-06-16 20:59:00,
2013-06-16 17:14:00,64.1,61.0,29.82,SW,215,8.0,14.0,90,0.00,,,0.00,weatherlink.com 1.10,2013-06-16 21:14:00,
2013-06-16 17:29:00,64.1,62.0,29.82,SW,221,11.0,15.0,91,0.00,,,0.00,weatherlink.com 1.10,2013-06-16 21:29:00,
2013-06-16 17:44:00,64.4,62.0,29.81,SW,217,14.0,16.0,93,0.00,,,0.00,weatherlink.com 1.10,2013-06-16 21:44:00,
2013-06-16 17:59:00,64.3,63.0,29.81,SSW,210,13.0,18.0,94,0.00,,,0.00,weatherlink.com 1.10,2013-06-16 21:59:00,
2013-06-16 18:14:00,64.3,63.0,29.80,South,172,13.0,18.0,94,0.00,,,0.00,weatherlink.com 1.10,2013-06-16 22:14:00,
2013-06-16 18:29:00,64.2,63.0,29.80,SSW,210,17.0,20.0,94,0.00,,,0.00,weatherlink.com 1.10,2013-06-16 22:29:00,
2013-06-16 18:44:00,64.5,63.0,29.79,SW,220,15.0,25.0,93,0.00,,,0.00,weatherlink.com 1.10,2013-06-16 22:44:00,
2013-06-16 18:59:00,64.8,63.0,29.80,SSW,212,16.0,26.0,92,0.00,,,0.00,weatherlink.com 1.10,2013-06-16 22:59:00,
2013-06-16 19:14:00,65.1,63.0,29.80,WNW,295,6.0,20.0,91,0.00,,,0.00,weatherlink.com 1.10,2013-06-16 23:14:00,
2013-06-16 19:29:00,65.1,63.0,29.80,SW,228,14.0,16.0,92,0.00,,,0.00,weatherlink.com 1.10,2013-06-16 23:29:00,
2013-06-16 19:44:00,64.8,63.0,29.79,SSW,208,11.0,20.0,92,0.00,,,0.00,weatherlink.com 1.10,2013-06-16 23:44:00,
2013-06-16 19:59:00,64.5,63.0,29.79,SW,221,6.0,17.0,93,0.00,,,0.00,weatherlink.com 1.10,2013-06-16 23:59:00,
2013-06-16 20:14:00,64.3,62.0,29.78,SSW,211,9.0,19.0,93,0.00,,,0.00,weatherlink.com 1.10,2013-06-17 00:14:00,
2013-06-16 20:29:00,64.0,62.0,29.78,SW,233,5.0,18.0,94,0.00,,,0.00,weatherlink.com 1.10,2013-06-17 00:29:00,
2013-06-16 20:44:00,63.8,62.0,29.78,SW,215,13.0,16.0,94,0.00,,,0.00,weatherlink.com 1.10,2013-06-17 00:44:00,
2013-06-16 20:59:00,63.7,62.0,29.78,SW,215,16.0,16.0,94,0.00,,,0.00,weatherlink.com 1.10,2013-06-17 00:59:00,
2013-06-16 21:14:00,63.6,62.0,29.79,SW,222,17.0,20.0,94,0.00,,,0.00,weatherlink.com 1.10,2013-06-17 01:14:00,
2013-06-16 21:29:00,63.5,62.0,29.79,SW,225,8.0,16.0,94,0.00,,,0.00,weatherlink.com 1.10,2013-06-17 01:29:00,
2013-06-16 21:44:00,63.5,62.0,29.79,NW,319,5.0,15.0,94,0.00,,,0.00,weatherlink.com 1.10,2013-06-17 01:44:00,
2013-06-16 21:59:00,63.5,62.0,29.79,WSW,255,6.0,14.0,93,0.00,,,0.00,weatherlink.com 1.10,2013-06-17 01:59:00,
2013-06-16 22:14:00,63.4,62.0,29.79,WSW,255,6.0,15.0,94,0.00,,,0.00,weatherlink.com 1.10,2013-06-17 02:14:00,
2013-06-16 22:29:00,63.5,62.0,29.78,WSW,256,3.0,14.0,94,0.00,,,0.00,weatherlink.com 1.10,2013-06-17 02:29:00,
2013-06-16 22:44:00,63.4,62.0,29.78,SW,228,7.0,13.0,94,0.00,,,0.00,weatherlink.com 1.10,2013-06-17 02:44:00,
2013-06-16 22:59:00,63.6,62.0,29.78,SSW,195,9.0,12.0,94,0.00,,,0.00,weatherlink.com 1.10,2013-06-17 02:59:00,
2013-06-16 23:14:00,63.8,62.0,29.78,WSW,248,6.0,14.0,94,0.00,,,0.00,weatherlink.com 1.10,2013-06-17 03:14:00,
2013-06-16 23:29:00,63.9,62.0,29.79,SW,220,4.0,12.0,94,0.00,,,0.00,weatherlink.com 1.10,2013-06-17 03:29:00,
2013-06-16 23:44:00,64.0,62.0,29.79,West,267,11.0,11.0,94,0.00,,,0.00,weatherlink.com 1.10,2013-06-17 03:44:00,
2013-06-16 23:59:00,64.1,62.0,29.79,West,281,7.0,10.0,93,0.00,,,0.00,weatherlink.com 1.10,2013-06-17 03:59:00,